YFC88 WSSL-WSSL

Flight info

Callsign YFC88
Flight time 0h 26m
Altitude 2000
Route CIRCUITS
Aircraft DA40/L-VGD/C

Departure

Time 2026-05-07 15:23
Airport Seletar Airport (WSSL)

Arrival

Time 2026-05-07 15:50
Airport Seletar Airport (WSSL)
Time Latitude Longitude Altitude Speed Heading
2026-05-07 15:06 1.41425 103.86349 50 ft 0 kts 149°
2026-05-07 15:15 1.41417 103.86353 50 ft 7 kts 149°
2026-05-07 15:15 1.41400 103.86391 50 ft 7 kts 35°
2026-05-07 15:16 1.41441 103.86417 50 ft 7 kts 33°
2026-05-07 15:16 1.41477 103.86453 50 ft 7 kts 37°
2026-05-07 15:16 1.41523 103.86485 50 ft 0 kts 56°
2026-05-07 15:19 1.41524 103.86485 50 ft 2 kts 43°
2026-05-07 15:19 1.41525 103.86486 50 ft 0 kts 33°
2026-05-07 15:20 1.41534 103.86491 50 ft 6 kts 29°
2026-05-07 15:20 1.41562 103.86529 50 ft 7 kts 115°
2026-05-07 15:20 1.41543 103.86557 50 ft 0 kts 122°
2026-05-07 15:22 1.41516 103.86597 51 ft 12 kts 123°
2026-05-07 15:22 1.41537 103.86661 50 ft 14 kts 32°
2026-05-07 15:22 1.41775 103.86816 49 ft 66 kts 34°
2026-05-07 15:23 1.42221 103.87104 175 ft 82 kts 33°
2026-05-07 15:23 1.42721 103.87412 379 ft 85 kts 31°
2026-05-07 15:23 1.43231 103.87735 584 ft 89 kts 27°
2026-05-07 15:23 1.43847 103.87795 749 ft 95 kts 341°
2026-05-07 15:24 1.44247 103.87339 616 ft 88 kts 285°
2026-05-07 15:24 1.44343 103.86724 386 ft 95 kts 272°
2026-05-07 15:24 1.44003 103.86210 563 ft 100 kts 202°
2026-05-07 15:24 1.43369 103.85978 803 ft 96 kts 203°
2026-05-07 15:25 1.42738 103.85693 947 ft 104 kts 207°
2026-05-07 15:25 1.42060 103.85340 1025 ft 114 kts 209°
2026-05-07 15:25 1.41356 103.84916 1014 ft 121 kts 215°
2026-05-07 15:25 1.40712 103.84505 1033 ft 93 kts 197°
2026-05-07 15:26 1.40093 103.84596 952 ft 88 kts 149°
2026-05-07 15:26 1.39806 103.85140 693 ft 95 kts 91°
2026-05-07 15:26 1.40073 103.85708 365 ft 90 kts 38°
2026-05-07 15:26 1.40569 103.86028 171 ft 79 kts 32°
2026-05-07 15:27 1.41015 103.86320 48 ft 68 kts 32°
2026-05-07 15:27 1.41390 103.86564 55 ft 76 kts 32°
2026-05-07 15:27 1.41885 103.86879 186 ft 88 kts 33°
2026-05-07 15:27 1.42420 103.87215 379 ft 93 kts 29°
2026-05-07 15:28 1.42995 103.87529 572 ft 97 kts 17°
2026-05-07 15:28 1.43644 103.87420 754 ft 97 kts 323°
2026-05-07 15:28 1.44004 103.86870 911 ft 103 kts 274°
2026-05-07 15:28 1.43675 103.86266 1063 ft 107 kts 220°
2026-05-07 15:29 1.43027 103.85801 1045 ft 121 kts 216°
2026-05-07 15:29 1.42307 103.85311 1005 ft 126 kts 215°
2026-05-07 15:29 1.41599 103.84810 994 ft 122 kts 217°
2026-05-07 15:29 1.40934 103.84315 1018 ft 114 kts 219°
2026-05-07 15:30 1.40375 103.84005 1002 ft 79 kts 188°
2026-05-07 15:30 1.39818 103.84168 787 ft 88 kts 149°
2026-05-07 15:30 1.39466 103.84647 647 ft 87 kts 101°
2026-05-07 15:30 1.39530 103.85252 500 ft 88 kts 65°
2026-05-07 15:31 1.39951 103.85626 354 ft 80 kts 32°
2026-05-07 15:31 1.40406 103.85924 214 ft 76 kts 33°
2026-05-07 15:31 1.40847 103.86208 70 ft 74 kts 31°
2026-05-07 15:31 1.41223 103.86454 50 ft 56 kts 34°
2026-05-07 15:32 1.41642 103.86723 105 ft 83 kts 32°
2026-05-07 15:32 1.42147 103.87030 294 ft 87 kts 31°
2026-05-07 15:32 1.42665 103.87355 497 ft 90 kts 30°
2026-05-07 15:32 1.43274 103.87491 654 ft 97 kts 342°
2026-05-07 15:33 1.43798 103.87063 784 ft 103 kts 294°
2026-05-07 15:33 1.43674 103.86392 941 ft 106 kts 222°
2026-05-07 15:33 1.43062 103.85940 987 ft 114 kts 215°
2026-05-07 15:33 1.42375 103.85485 984 ft 121 kts 215°
2026-05-07 15:34 1.41661 103.85008 993 ft 124 kts 214°
2026-05-07 15:34 1.40936 103.84521 993 ft 127 kts 214°
2026-05-07 15:34 1.40226 103.83993 989 ft 123 kts 218°
2026-05-07 15:34 1.39573 103.83899 962 ft 86 kts 164°
2026-05-07 15:35 1.39190 103.84287 732 ft 83 kts 99°
2026-05-07 15:35 1.39193 103.84677 606 ft 86 kts 80°
2026-05-07 15:35 1.39552 103.85355 382 ft 82 kts 41°
2026-05-07 15:35 1.39996 103.85658 282 ft 74 kts 31°
2026-05-07 15:36 1.40419 103.85936 179 ft 71 kts 32°
2026-05-07 15:36 1.40689 103.86109 114 ft 69 kts 32°
2026-05-07 15:36 1.41067 103.86355 48 ft 54 kts 31°
2026-05-07 15:36 1.41418 103.86580 63 ft 75 kts 31°
2026-05-07 15:37 1.41886 103.86891 218 ft 86 kts 31°
2026-05-07 15:37 1.42431 103.87216 393 ft 93 kts 30°
2026-05-07 15:37 1.42995 103.87510 641 ft 90 kts 13°
2026-05-07 15:37 1.43587 103.87371 841 ft 92 kts 321°
2026-05-07 15:38 1.43974 103.86860 1022 ft 96 kts 279°
2026-05-07 15:38 1.43697 103.86284 1196 ft 100 kts 217°
2026-05-07 15:38 1.43127 103.85903 1420 ft 99 kts 213°
2026-05-07 15:38 1.42527 103.85521 1515 ft 109 kts 213°
2026-05-07 15:39 1.41869 103.85099 1531 ft 115 kts 214°
2026-05-07 15:39 1.41213 103.84623 1551 ft 118 kts 218°
2026-05-07 15:39 1.40586 103.84092 1564 ft 114 kts 225°
2026-05-07 15:39 1.40026 103.83706 1456 ft 87 kts 196°
2026-05-07 15:40 1.39450 103.83799 1162 ft 89 kts 150°
2026-05-07 15:40 1.39049 103.84244 921 ft 85 kts 103°
2026-05-07 15:40 1.39052 103.84831 702 ft 84 kts 71°
2026-05-07 15:40 1.39411 103.85288 523 ft 80 kts 34°
2026-05-07 15:41 1.39853 103.85571 350 ft 73 kts 32°
2026-05-07 15:41 1.40264 103.85836 231 ft 70 kts 31°
2026-05-07 15:41 1.40671 103.86099 123 ft 71 kts 33°
2026-05-07 15:41 1.41074 103.86359 48 ft 60 kts 26°
2026-05-07 15:42 1.41383 103.86556 50 ft 61 kts 32°
2026-05-07 15:42 1.41824 103.86840 141 ft 84 kts 33°
2026-05-07 15:42 1.42340 103.87172 313 ft 91 kts 30°
2026-05-07 15:42 1.42886 103.87510 514 ft 94 kts 30°
2026-05-07 15:43 1.43511 103.87529 615 ft 101 kts 317°
2026-05-07 15:43 1.43519 103.86873 615 ft 110 kts 228°
2026-05-07 15:43 1.42830 103.86398 483 ft 125 kts 214°
2026-05-07 15:43 1.42096 103.85915 475 ft 125 kts 213°
2026-05-07 15:44 1.41371 103.85447 505 ft 123 kts 216°
2026-05-07 15:44 1.40720 103.84897 504 ft 124 kts 224°
2026-05-07 15:44 1.40037 103.84399 549 ft 119 kts 194°
2026-05-07 15:44 1.39444 103.84790 597 ft 112 kts 94°
2026-05-07 15:45 1.39726 103.85509 394 ft 115 kts 35°
2026-05-07 15:45 1.40353 103.85880 223 ft 101 kts 33°
2026-05-07 15:45 1.40931 103.86249 132 ft 101 kts 27°
2026-05-07 15:45 1.41569 103.86597 309 ft 103 kts 29°
2026-05-07 15:46 1.42828 103.87230 731 ft 101 kts 359°
2026-05-07 15:46 1.43420 103.86887 893 ft 103 kts 296°
2026-05-07 15:46 1.43357 103.86199 988 ft 111 kts 230°
2026-05-07 15:47 1.42707 103.85710 1009 ft 121 kts 215°
2026-05-07 15:47 1.42015 103.85239 1024 ft 122 kts 216°
2026-05-07 15:47 1.41323 103.84734 972 ft 123 kts 217°
2026-05-07 15:47 1.40654 103.84237 996 ft 108 kts 218°
2026-05-07 15:48 1.40103 103.83918 953 ft 84 kts 186°
2026-05-07 15:48 1.39534 103.84074 845 ft 86 kts 153°
2026-05-07 15:48 1.39195 103.84515 814 ft 83 kts 114°
2026-05-07 15:48 1.39182 103.85085 701 ft 87 kts 65°
2026-05-07 15:49 1.39620 103.85429 461 ft 76 kts 30°
2026-05-07 15:49 1.40057 103.85702 298 ft 75 kts 31°
2026-05-07 15:49 1.40485 103.85984 198 ft 73 kts 32°
2026-05-07 15:49 1.40919 103.86260 73 ft 74 kts 32°
2026-05-07 15:50 1.41280 103.86490 50 ft 39 kts 31°
2026-05-07 15:50 1.41490 103.86603 51 ft 24 kts 349°
2026-05-07 15:50 1.41560 103.86532 50 ft 7 kts 305°
2026-05-07 15:50 1.41572 103.86495 50 ft 7 kts 256°
2026-05-07 15:51 1.41532 103.86464 50 ft 7 kts 213°
2026-05-07 15:51 1.41489 103.86436 50 ft 6 kts 218°
2026-05-07 15:51 1.41474 103.86396 50 ft 6 kts 237°
2026-05-07 15:51 1.41460 103.86377 50 ft 2 kts 196°
2026-05-07 15:52 1.41455 103.86378 50 ft 0 kts 158°
2026-05-07 15:52 1.41452 103.86380 50 ft 0 kts 148°
2026-05-07 15:52 1.41446 103.86384 50 ft 0 kts 150°